sensor_id;sensor_type;location;lat;lon;timestamp;temperature;humidity
9998;DHT22;5038;53.064;8.624;2023-02-15T00:02:05;2.10;99.90
9998;DHT22;5038;53.064;8.624;2023-02-15T00:04:33;2.10;99.90
9998;DHT22;5038;53.064;8.624;2023-02-15T00:07:19;2.10;99.90
9998;DHT22;5038;53.064;8.624;2023-02-15T00:09:47;2.00;99.90
9998;DHT22;5038;53.064;8.624;2023-02-15T00:12:15;2.00;99.90
9998;DHT22;5038;53.064;8.624;2023-02-15T00:14:43;2.00;99.90
9998;DHT22;5038;53.064;8.624;2023-02-15T00:17:11;2.00;99.90
9998;DHT22;5038;53.064;8.624;2023-02-15T00:19:40;2.00;99.90
9998;DHT22;5038;53.064;8.624;2023-02-15T00:22:08;1.90;99.90
9998;DHT22;5038;53.064;8.624;2023-02-15T00:24:37;1.90;99.90
9998;DHT22;5038;53.064;8.624;2023-02-15T00:27:05;1.90;99.90
9998;DHT22;5038;53.064;8.624;2023-02-15T00:29:35;1.90;99.90
9998;DHT22;5038;53.064;8.624;2023-02-15T00:32:04;1.90;99.90
9998;DHT22;5038;53.064;8.624;2023-02-15T00:34:32;1.80;99.90
9998;DHT22;5038;53.064;8.624;2023-02-15T00:37:01;1.80;99.90
9998;DHT22;5038;53.064;8.624;2023-02-15T00:39:29;1.80;99.90
9998;DHT22;5038;53.064;8.624;2023-02-15T00:41:59;1.80;99.90
9998;DHT22;5038;53.064;8.624;2023-02-15T00:44:27;1.80;99.90
9998;DHT22;5038;53.064;8.624;2023-02-15T00:46:55;1.70;99.90
9998;DHT22;5038;53.064;8.624;2023-02-15T00:49:24;1.80;99.90
9998;DHT22;5038;53.064;8.624;2023-02-15T00:51:53;1.80;99.90
9998;DHT22;5038;53.064;8.624;2023-02-15T00:54:21;1.80;99.90
9998;DHT22;5038;53.064;8.624;2023-02-15T00:56:49;1.80;99.90
9998;DHT22;5038;53.064;8.624;2023-02-15T00:59:19;1.80;99.90
9998;DHT22;5038;53.064;8.624;2023-02-15T01:01:47;1.70;99.90
9998;DHT22;5038;53.064;8.624;2023-02-15T01:04:15;1.70;99.90
9998;DHT22;5038;53.064;8.624;2023-02-15T01:06:43;1.80;99.90
9998;DHT22;5038;53.064;8.624;2023-02-15T01:09:11;1.70;99.90
9998;DHT22;5038;53.064;8.624;2023-02-15T01:11:40;1.70;99.90
9998;DHT22;5038;53.064;8.624;2023-02-15T01:14:08;1.70;99.90
9998;DHT22;5038;53.064;8.624;2023-02-15T01:16:39;1.70;99.90
9998;DHT22;5038;53.064;8.624;2023-02-15T01:19:07;1.70;99.90
9998;DHT22;5038;53.064;8.624;2023-02-15T01:21:35;1.70;99.90
9998;DHT22;5038;53.064;8.624;2023-02-15T01:24:03;1.70;99.90
9998;DHT22;5038;53.064;8.624;2023-02-15T01:26:31;1.70;99.90
9998;DHT22;5038;53.064;8.624;2023-02-15T01:28:59;1.70;99.90
9998;DHT22;5038;53.064;8.624;2023-02-15T01:31:27;1.70;99.90
9998;DHT22;5038;53.064;8.624;2023-02-15T01:33:57;1.70;99.90
9998;DHT22;5038;53.064;8.624;2023-02-15T01:36:25;1.70;99.90
9998;DHT22;5038;53.064;8.624;2023-02-15T01:38:53;1.70;99.90
9998;DHT22;5038;53.064;8.624;2023-02-15T01:41:21;1.70;99.90
9998;DHT22;5038;53.064;8.624;2023-02-15T01:43:55;1.70;99.90
9998;DHT22;5038;53.064;8.624;2023-02-15T01:46:28;1.70;99.90
9998;DHT22;5038;53.064;8.624;2023-02-15T01:49:03;1.70;99.90
9998;DHT22;5038;53.064;8.624;2023-02-15T01:51:35;1.70;99.90
9998;DHT22;5038;53.064;8.624;2023-02-15T01:54:09;1.70;99.90
9998;DHT22;5038;53.064;8.624;2023-02-15T01:56:39;1.70;99.90
9998;DHT22;5038;53.064;8.624;2023-02-15T01:59:12;1.70;99.90
9998;DHT22;5038;53.064;8.624;2023-02-15T02:01:41;1.70;99.90
9998;DHT22;5038;53.064;8.624;2023-02-15T02:04:15;1.70;99.90
9998;DHT22;5038;53.064;8.624;2023-02-15T02:06:46;1.70;99.90
9998;DHT22;5038;53.064;8.624;2023-02-15T02:09:15;1.70;99.90
9998;DHT22;5038;53.064;8.624;2023-02-15T02:11:46;1.70;99.90
9998;DHT22;5038;53.064;8.624;2023-02-15T02:14:16;1.70;99.90
9998;DHT22;5038;53.064;8.624;2023-02-15T02:16:51;1.70;99.90
9998;DHT22;5038;53.064;8.624;2023-02-15T02:22:54;1.70;99.90
9998;DHT22;5038;53.064;8.624;2023-02-15T02:34:53;1.70;99.90
9998;DHT22;5038;53.064;8.624;2023-02-15T02:37:29;1.70;99.90
9998;DHT22;5038;53.064;8.624;2023-02-15T02:40:04;1.70;99.90
9998;DHT22;5038;53.064;8.624;2023-02-15T02:42:39;1.70;99.90
9998;DHT22;5038;53.064;8.624;2023-02-15T02:45:12;1.60;99.90
9998;DHT22;5038;53.064;8.624;2023-02-15T02:47:46;1.70;99.90
9998;DHT22;5038;53.064;8.624;2023-02-15T02:50:18;1.70;99.90
9998;DHT22;5038;53.064;8.624;2023-02-15T02:52:50;1.70;99.90
9998;DHT22;5038;53.064;8.624;2023-02-15T02:55:21;1.60;99.90
9998;DHT22;5038;53.064;8.624;2023-02-15T02:57:54;1.60;99.90
9998;DHT22;5038;53.064;8.624;2023-02-15T03:00:25;1.60;99.90
9998;DHT22;5038;53.064;8.624;2023-02-15T03:02:58;1.60;99.90
9998;DHT22;5038;53.064;8.624;2023-02-15T03:05:34;1.60;99.90
9998;DHT22;5038;53.064;8.624;2023-02-15T03:08:04;1.60;99.90
9998;DHT22;5038;53.064;8.624;2023-02-15T03:10:39;1.60;99.90
9998;DHT22;5038;53.064;8.624;2023-02-15T03:13:08;1.60;99.90
9998;DHT22;5038;53.064;8.624;2023-02-15T03:15:38;1.60;99.90
9998;DHT22;5038;53.064;8.624;2023-02-15T03:18:28;1.50;99.90
9998;DHT22;5038;53.064;8.624;2023-02-15T03:21:01;1.50;99.90
9998;DHT22;5038;53.064;8.624;2023-02-15T03:23:30;1.50;99.90
9998;DHT22;5038;53.064;8.624;2023-02-15T03:26:02;1.50;99.90
9998;DHT22;5038;53.064;8.624;2023-02-15T03:28:36;1.50;99.90
9998;DHT22;5038;53.064;8.624;2023-02-15T03:31:07;1.50;99.90
9998;DHT22;5038;53.064;8.624;2023-02-15T03:33:40;1.50;99.90
9998;DHT22;5038;53.064;8.624;2023-02-15T03:36:17;1.50;99.90
9998;DHT22;5038;53.064;8.624;2023-02-15T03:38:53;1.50;99.90
9998;DHT22;5038;53.064;8.624;2023-02-15T03:41:27;1.50;99.90
9998;DHT22;5038;53.064;8.624;2023-02-15T03:44:02;1.50;99.90
9998;DHT22;5038;53.064;8.624;2023-02-15T03:46:35;1.50;99.90
9998;DHT22;5038;53.064;8.624;2023-02-15T03:49:09;1.40;99.90
9998;DHT22;5038;53.064;8.624;2023-02-15T03:51:42;1.40;99.90
9998;DHT22;5038;53.064;8.624;2023-02-15T03:54:14;1.40;99.90
9998;DHT22;5038;53.064;8.624;2023-02-15T03:57:04;1.40;99.90
9998;DHT22;5038;53.064;8.624;2023-02-15T03:59:50;1.40;99.90
9998;DHT22;5038;53.064;8.624;2023-02-15T04:02:42;1.40;99.90
9998;DHT22;5038;53.064;8.624;2023-02-15T04:05:12;1.40;99.90
9998;DHT22;5038;53.064;8.624;2023-02-15T04:07:42;1.30;99.90
9998;DHT22;5038;53.064;8.624;2023-02-15T04:10:10;1.30;99.90
9998;DHT22;5038;53.064;8.624;2023-02-15T04:12:56;1.30;99.90
9998;DHT22;5038;53.064;8.624;2023-02-15T04:15:24;1.30;99.90
9998;DHT22;5038;53.064;8.624;2023-02-15T04:18:09;1.30;99.90
9998;DHT22;5038;53.064;8.624;2023-02-15T04:20:37;1.30;99.90
9998;DHT22;5038;53.064;8.624;2023-02-15T04:23:25;1.30;99.90
9998;DHT22;5038;53.064;8.624;2023-02-15T04:26:10;1.30;99.90
9998;DHT22;5038;53.064;8.624;2023-02-15T04:28:38;1.30;99.90
9998;DHT22;5038;53.064;8.624;2023-02-15T04:31:06;1.20;99.90
9998;DHT22;5038;53.064;8.624;2023-02-15T04:33:35;1.20;99.90
9998;DHT22;5038;53.064;8.624;2023-02-15T04:36:04;1.20;99.90
9998;DHT22;5038;53.064;8.624;2023-02-15T04:38:33;1.20;99.90
9998;DHT22;5038;53.064;8.624;2023-02-15T04:41:01;1.20;99.90
9998;DHT22;5038;53.064;8.624;2023-02-15T04:43:29;1.20;99.90
9998;DHT22;5038;53.064;8.624;2023-02-15T04:45:57;1.20;99.90
9998;DHT22;5038;53.064;8.624;2023-02-15T04:48:26;1.10;99.90
9998;DHT22;5038;53.064;8.624;2023-02-15T04:50:54;1.20;99.90
9998;DHT22;5038;53.064;8.624;2023-02-15T04:53:22;1.10;99.90
9998;DHT22;5038;53.064;8.624;2023-02-15T04:55:51;1.10;99.90
9998;DHT22;5038;53.064;8.624;2023-02-15T04:58:19;1.10;99.90
9998;DHT22;5038;53.064;8.624;2023-02-15T05:00:47;1.10;99.90
9998;DHT22;5038;53.064;8.624;2023-02-15T05:03:16;1.10;99.90
9998;DHT22;5038;53.064;8.624;2023-02-15T05:05:45;1.10;99.90
9998;DHT22;5038;53.064;8.624;2023-02-15T05:08:13;1.10;99.90
9998;DHT22;5038;53.064;8.624;2023-02-15T05:10:41;1.10;99.90
9998;DHT22;5038;53.064;8.624;2023-02-15T05:13:10;1.10;99.90
9998;DHT22;5038;53.064;8.624;2023-02-15T05:15:38;1.00;99.90
9998;DHT22;5038;53.064;8.624;2023-02-15T05:18:09;1.10;99.90
9998;DHT22;5038;53.064;8.624;2023-02-15T05:20:47;1.00;99.90
9998;DHT22;5038;53.064;8.624;2023-02-15T05:23:15;1.00;99.90
9998;DHT22;5038;53.064;8.624;2023-02-15T05:25:47;1.00;99.90
9998;DHT22;5038;53.064;8.624;2023-02-15T05:28:35;1.00;99.90
9998;DHT22;5038;53.064;8.624;2023-02-15T05:31:06;1.00;99.90
9998;DHT22;5038;53.064;8.624;2023-02-15T05:33:35;1.00;99.90
9998;DHT22;5038;53.064;8.624;2023-02-15T05:36:03;1.00;99.90
9998;DHT22;5038;53.064;8.624;2023-02-15T05:38:32;1.00;99.90
9998;DHT22;5038;53.064;8.624;2023-02-15T05:41:00;1.00;99.90
9998;DHT22;5038;53.064;8.624;2023-02-15T05:43:29;1.00;99.90
9998;DHT22;5038;53.064;8.624;2023-02-15T05:45:59;1.00;99.90
9998;DHT22;5038;53.064;8.624;2023-02-15T05:48:28;1.00;99.90
9998;DHT22;5038;53.064;8.624;2023-02-15T05:50:57;0.90;99.90
9998;DHT22;5038;53.064;8.624;2023-02-15T05:53:26;0.90;99.90
9998;DHT22;5038;53.064;8.624;2023-02-15T05:55:54;0.90;99.90
9998;DHT22;5038;53.064;8.624;2023-02-15T05:58:28;0.90;99.90
9998;DHT22;5038;53.064;8.624;2023-02-15T06:00:58;0.90;99.90
9998;DHT22;5038;53.064;8.624;2023-02-15T06:03:26;0.90;99.90
9998;DHT22;5038;53.064;8.624;2023-02-15T06:05:55;0.90;99.90
9998;DHT22;5038;53.064;8.624;2023-02-15T06:08:23;0.80;99.90
9998;DHT22;5038;53.064;8.624;2023-02-15T06:10:51;0.80;99.90
9998;DHT22;5038;53.064;8.624;2023-02-15T06:13:19;0.80;99.90
9998;DHT22;5038;53.064;8.624;2023-02-15T06:15:48;0.80;99.90
9998;DHT22;5038;53.064;8.624;2023-02-15T06:18:17;0.80;99.90
9998;DHT22;5038;53.064;8.624;2023-02-15T06:20:46;0.80;99.90
9998;DHT22;5038;53.064;8.624;2023-02-15T06:23:14;0.80;99.90
9998;DHT22;5038;53.064;8.624;2023-02-15T06:25:44;0.80;99.90
9998;DHT22;5038;53.064;8.624;2023-02-15T06:28:13;0.70;99.90
9998;DHT22;5038;53.064;8.624;2023-02-15T06:30:41;0.70;99.90
9998;DHT22;5038;53.064;8.624;2023-02-15T06:33:09;0.70;99.90
9998;DHT22;5038;53.064;8.624;2023-02-15T06:35:38;0.70;99.90
9998;DHT22;5038;53.064;8.624;2023-02-15T06:38:06;0.70;99.90
9998;DHT22;5038;53.064;8.624;2023-02-15T06:40:35;0.70;99.90
9998;DHT22;5038;53.064;8.624;2023-02-15T06:43:03;0.70;99.90
9998;DHT22;5038;53.064;8.624;2023-02-15T06:45:31;0.70;99.90
9998;DHT22;5038;53.064;8.624;2023-02-15T06:47:59;0.70;99.90
9998;DHT22;5038;53.064;8.624;2023-02-15T06:50:27;0.70;99.90
9998;DHT22;5038;53.064;8.624;2023-02-15T06:52:57;0.70;99.90
9998;DHT22;5038;53.064;8.624;2023-02-15T06:55:26;0.70;99.90
9998;DHT22;5038;53.064;8.624;2023-02-15T06:57:54;0.70;99.90
9998;DHT22;5038;53.064;8.624;2023-02-15T07:00:22;0.70;99.90
9998;DHT22;5038;53.064;8.624;2023-02-15T07:02:53;0.70;99.90
9998;DHT22;5038;53.064;8.624;2023-02-15T07:05:24;0.60;99.90
9998;DHT22;5038;53.064;8.624;2023-02-15T07:07:59;0.60;99.90
9998;DHT22;5038;53.064;8.624;2023-02-15T07:10:27;0.60;99.90
9998;DHT22;5038;53.064;8.624;2023-02-15T07:12:55;0.60;99.90
9998;DHT22;5038;53.064;8.624;2023-02-15T07:15:23;0.60;99.90
9998;DHT22;5038;53.064;8.624;2023-02-15T07:17:51;0.60;99.90
9998;DHT22;5038;53.064;8.624;2023-02-15T07:20:21;0.60;99.90
9998;DHT22;5038;53.064;8.624;2023-02-15T07:22:50;0.60;99.90
9998;DHT22;5038;53.064;8.624;2023-02-15T07:25:19;0.60;99.90
9998;DHT22;5038;53.064;8.624;2023-02-15T07:27:48;0.60;99.90
9998;DHT22;5038;53.064;8.624;2023-02-15T07:30:16;0.60;99.90
9998;DHT22;5038;53.064;8.624;2023-02-15T07:32:45;0.60;99.90
9998;DHT22;5038;53.064;8.624;2023-02-15T07:35:31;0.70;99.90
9998;DHT22;5038;53.064;8.624;2023-02-15T07:37:59;0.70;99.90
9998;DHT22;5038;53.064;8.624;2023-02-15T07:40:29;0.70;99.90
9998;DHT22;5038;53.064;8.624;2023-02-15T07:42:58;0.80;99.90
9998;DHT22;5038;53.064;8.624;2023-02-15T07:45:26;0.80;99.90
9998;DHT22;5038;53.064;8.624;2023-02-15T07:47:54;0.80;99.90
9998;DHT22;5038;53.064;8.624;2023-02-15T07:50:23;0.80;99.90
9998;DHT22;5038;53.064;8.624;2023-02-15T07:52:51;0.90;99.90
9998;DHT22;5038;53.064;8.624;2023-02-15T07:55:19;0.90;99.90
9998;DHT22;5038;53.064;8.624;2023-02-15T07:57:49;1.00;99.90
9998;DHT22;5038;53.064;8.624;2023-02-15T08:00:19;1.00;99.90
9998;DHT22;5038;53.064;8.624;2023-02-15T08:02:51;1.00;99.90
9998;DHT22;5038;53.064;8.624;2023-02-15T08:05:40;1.00;99.90
9998;DHT22;5038;53.064;8.624;2023-02-15T08:08:10;1.10;99.90
9998;DHT22;5038;53.064;8.624;2023-02-15T08:11:01;1.10;99.90
9998;DHT22;5038;53.064;8.624;2023-02-15T08:13:50;1.20;99.90
9998;DHT22;5038;53.064;8.624;2023-02-15T08:16:26;1.20;99.90
9998;DHT22;5038;53.064;8.624;2023-02-15T08:18:56;1.30;99.90
9998;DHT22;5038;53.064;8.624;2023-02-15T08:21:26;1.40;99.90
9998;DHT22;5038;53.064;8.624;2023-02-15T08:23:56;1.40;99.90
9998;DHT22;5038;53.064;8.624;2023-02-15T08:26:26;1.50;99.90
9998;DHT22;5038;53.064;8.624;2023-02-15T08:28:57;1.60;99.90
9998;DHT22;5038;53.064;8.624;2023-02-15T08:31:25;1.60;99.90
9998;DHT22;5038;53.064;8.624;2023-02-15T08:33:55;1.70;99.90
9998;DHT22;5038;53.064;8.624;2023-02-15T08:36:26;1.70;99.90
9998;DHT22;5038;53.064;8.624;2023-02-15T08:38:54;1.80;99.90
9998;DHT22;5038;53.064;8.624;2023-02-15T08:41:26;1.90;99.90
9998;DHT22;5038;53.064;8.624;2023-02-15T08:43:58;1.90;99.90
9998;DHT22;5038;53.064;8.624;2023-02-15T08:46:28;1.90;99.90
9998;DHT22;5038;53.064;8.624;2023-02-15T08:48:57;2.00;99.90
9998;DHT22;5038;53.064;8.624;2023-02-15T08:51:27;2.00;99.90
9998;DHT22;5038;53.064;8.624;2023-02-15T08:53:57;2.00;99.90
9998;DHT22;5038;53.064;8.624;2023-02-15T08:56:27;2.10;99.90
9998;DHT22;5038;53.064;8.624;2023-02-15T08:58:57;2.20;99.90
9998;DHT22;5038;53.064;8.624;2023-02-15T09:01:27;2.20;99.90
9998;DHT22;5038;53.064;8.624;2023-02-15T09:03:57;2.30;99.90
9998;DHT22;5038;53.064;8.624;2023-02-15T09:06:27;2.30;99.90
9998;DHT22;5038;53.064;8.624;2023-02-15T09:08:56;2.40;99.90
9998;DHT22;5038;53.064;8.624;2023-02-15T09:11:26;2.40;99.90
9998;DHT22;5038;53.064;8.624;2023-02-15T09:13:57;2.50;99.90
9998;DHT22;5038;53.064;8.624;2023-02-15T09:16:27;2.50;99.90
9998;DHT22;5038;53.064;8.624;2023-02-15T09:18:56;2.60;99.90
9998;DHT22;5038;53.064;8.624;2023-02-15T09:21:26;2.60;99.90
9998;DHT22;5038;53.064;8.624;2023-02-15T09:23:56;2.70;99.90
9998;DHT22;5038;53.064;8.624;2023-02-15T09:26:28;2.80;99.90
9998;DHT22;5038;53.064;8.624;2023-02-15T09:28:59;2.80;99.90
9998;DHT22;5038;53.064;8.624;2023-02-15T09:31:31;2.90;99.90
9998;DHT22;5038;53.064;8.624;2023-02-15T09:34:01;3.00;99.90
9998;DHT22;5038;53.064;8.624;2023-02-15T09:36:33;3.10;99.90
9998;DHT22;5038;53.064;8.624;2023-02-15T09:39:07;3.20;99.90
9998;DHT22;5038;53.064;8.624;2023-02-15T09:42:11;3.20;99.90
9998;DHT22;5038;53.064;8.624;2023-02-15T09:45:01;3.30;99.90
9998;DHT22;5038;53.064;8.624;2023-02-15T09:47:50;3.30;99.90
9998;DHT22;5038;53.064;8.624;2023-02-15T09:50:28;3.40;99.90
9998;DHT22;5038;53.064;8.624;2023-02-15T09:53:10;3.50;99.90
9998;DHT22;5038;53.064;8.624;2023-02-15T09:55:50;3.60;99.90
9998;DHT22;5038;53.064;8.624;2023-02-15T09:58:29;3.60;99.90
9998;DHT22;5038;53.064;8.624;2023-02-15T10:01:07;3.70;99.90
9998;DHT22;5038;53.064;8.624;2023-02-15T10:03:49;3.80;99.90
9998;DHT22;5038;53.064;8.624;2023-02-15T10:06:32;3.90;99.90
9998;DHT22;5038;53.064;8.624;2023-02-15T10:09:22;3.90;99.90
9998;DHT22;5038;53.064;8.624;2023-02-15T10:12:03;4.00;99.90
9998;DHT22;5038;53.064;8.624;2023-02-15T10:15:03;4.10;99.90
9998;DHT22;5038;53.064;8.624;2023-02-15T10:17:46;4.20;99.90
9998;DHT22;5038;53.064;8.624;2023-02-15T10:20:30;4.20;99.90
9998;DHT22;5038;53.064;8.624;2023-02-15T10:23:12;4.30;99.90
9998;DHT22;5038;53.064;8.624;2023-02-15T10:25:47;4.40;99.90
9998;DHT22;5038;53.064;8.624;2023-02-15T10:28:18;4.50;99.90
9998;DHT22;5038;53.064;8.624;2023-02-15T10:30:48;4.60;99.90
9998;DHT22;5038;53.064;8.624;2023-02-15T10:33:38;4.60;99.90
9998;DHT22;5038;53.064;8.624;2023-02-15T10:36:16;4.70;99.90
9998;DHT22;5038;53.064;8.624;2023-02-15T10:38:53;4.80;99.90
9998;DHT22;5038;53.064;8.624;2023-02-15T10:41:32;4.90;99.90
9998;DHT22;5038;53.064;8.624;2023-02-15T10:47:12;5.00;99.90
9998;DHT22;5038;53.064;8.624;2023-02-15T10:50:00;5.10;99.90
9998;DHT22;5038;53.064;8.624;2023-02-15T10:52:40;5.20;99.90
9998;DHT22;5038;53.064;8.624;2023-02-15T10:55:14;5.30;99.90
9998;DHT22;5038;53.064;8.624;2023-02-15T10:57:50;5.40;99.90
9998;DHT22;5038;53.064;8.624;2023-02-15T11:00:24;5.50;99.90
9998;DHT22;5038;53.064;8.624;2023-02-15T11:03:25;5.60;99.90
9998;DHT22;5038;53.064;8.624;2023-02-15T11:06:03;5.70;99.90
9998;DHT22;5038;53.064;8.624;2023-02-15T11:08:35;5.70;99.90
9998;DHT22;5038;53.064;8.624;2023-02-15T11:11:07;5.80;99.90
9998;DHT22;5038;53.064;8.624;2023-02-15T11:13:39;5.90;99.90
9998;DHT22;5038;53.064;8.624;2023-02-15T11:16:12;6.00;99.90
9998;DHT22;5038;53.064;8.624;2023-02-15T11:18:48;6.10;99.90
9998;DHT22;5038;53.064;8.624;2023-02-15T11:21:21;6.20;99.90
9998;DHT22;5038;53.064;8.624;2023-02-15T11:23:51;6.20;99.90
9998;DHT22;5038;53.064;8.624;2023-02-15T11:26:24;6.30;99.90
9998;DHT22;5038;53.064;8.624;2023-02-15T11:28:58;6.40;99.90
9998;DHT22;5038;53.064;8.624;2023-02-15T11:31:34;6.50;99.90
9998;DHT22;5038;53.064;8.624;2023-02-15T11:34:10;6.60;99.90
9998;DHT22;5038;53.064;8.624;2023-02-15T11:36:43;6.60;99.90
9998;DHT22;5038;53.064;8.624;2023-02-15T11:39:15;6.70;99.90
9998;DHT22;5038;53.064;8.624;2023-02-15T11:41:47;6.80;99.90
9998;DHT22;5038;53.064;8.624;2023-02-15T11:44:23;6.90;99.90
9998;DHT22;5038;53.064;8.624;2023-02-15T11:46:54;7.00;99.90
9998;DHT22;5038;53.064;8.624;2023-02-15T11:49:26;7.10;99.90
9998;DHT22;5038;53.064;8.624;2023-02-15T11:51:57;7.10;99.90
9998;DHT22;5038;53.064;8.624;2023-02-15T11:54:28;7.20;99.90
9998;DHT22;5038;53.064;8.624;2023-02-15T11:56:59;7.30;99.90
9998;DHT22;5038;53.064;8.624;2023-02-15T11:59:31;7.30;99.90
9998;DHT22;5038;53.064;8.624;2023-02-15T12:02:00;7.40;99.90
9998;DHT22;5038;53.064;8.624;2023-02-15T12:04:31;7.40;99.90
9998;DHT22;5038;53.064;8.624;2023-02-15T12:07:10;7.50;99.90
9998;DHT22;5038;53.064;8.624;2023-02-15T12:09:48;7.50;99.90
9998;DHT22;5038;53.064;8.624;2023-02-15T12:12:23;7.60;99.90
9998;DHT22;5038;53.064;8.624;2023-02-15T12:14:53;7.70;99.90
9998;DHT22;5038;53.064;8.624;2023-02-15T12:17:23;7.70;99.90
9998;DHT22;5038;53.064;8.624;2023-02-15T12:19:53;7.80;99.90
9998;DHT22;5038;53.064;8.624;2023-02-15T12:22:26;7.90;99.90
9998;DHT22;5038;53.064;8.624;2023-02-15T12:24:57;7.90;99.90
9998;DHT22;5038;53.064;8.624;2023-02-15T12:27:28;8.00;99.90
9998;DHT22;5038;53.064;8.624;2023-02-15T12:29:59;8.10;99.90
9998;DHT22;5038;53.064;8.624;2023-02-15T12:32:32;8.10;99.90
9998;DHT22;5038;53.064;8.624;2023-02-15T12:35:09;8.20;99.90
9998;DHT22;5038;53.064;8.624;2023-02-15T12:37:52;8.30;99.90
9998;DHT22;5038;53.064;8.624;2023-02-15T12:40:23;8.30;99.90
9998;DHT22;5038;53.064;8.624;2023-02-15T12:42:52;8.40;99.90
9998;DHT22;5038;53.064;8.624;2023-02-15T12:45:23;8.50;99.90
9998;DHT22;5038;53.064;8.624;2023-02-15T12:48:15;8.50;99.90
9998;DHT22;5038;53.064;8.624;2023-02-15T12:50:44;8.60;99.90
9998;DHT22;5038;53.064;8.624;2023-02-15T12:53:34;8.70;99.90
9998;DHT22;5038;53.064;8.624;2023-02-15T12:56:04;8.80;99.90
9998;DHT22;5038;53.064;8.624;2023-02-15T12:58:34;8.80;99.90
9998;DHT22;5038;53.064;8.624;2023-02-15T13:01:09;8.90;99.90
9998;DHT22;5038;53.064;8.624;2023-02-15T13:03:55;9.00;99.90
9998;DHT22;5038;53.064;8.624;2023-02-15T13:06:24;9.10;99.90
9998;DHT22;5038;53.064;8.624;2023-02-15T13:08:57;9.10;99.90
9998;DHT22;5038;53.064;8.624;2023-02-15T13:11:29;9.20;99.90
9998;DHT22;5038;53.064;8.624;2023-02-15T13:14:02;9.30;99.90
9998;DHT22;5038;53.064;8.624;2023-02-15T13:16:32;9.40;99.90
9998;DHT22;5038;53.064;8.624;2023-02-15T13:19:05;9.40;99.90
9998;DHT22;5038;53.064;8.624;2023-02-15T13:21:37;9.50;99.90
9998;DHT22;5038;53.064;8.624;2023-02-15T13:24:17;9.50;99.90
9998;DHT22;5038;53.064;8.624;2023-02-15T13:26:47;9.60;99.90
9998;DHT22;5038;53.064;8.624;2023-02-15T13:29:18;9.60;99.90
9998;DHT22;5038;53.064;8.624;2023-02-15T13:31:50;9.60;99.90
9998;DHT22;5038;53.064;8.624;2023-02-15T13:34:23;9.60;99.90
9998;DHT22;5038;53.064;8.624;2023-02-15T13:36:59;9.70;99.90
9998;DHT22;5038;53.064;8.624;2023-02-15T13:39:36;9.70;99.90
9998;DHT22;5038;53.064;8.624;2023-02-15T13:42:17;9.70;99.90
9998;DHT22;5038;53.064;8.624;2023-02-15T13:45:01;9.80;99.90
9998;DHT22;5038;53.064;8.624;2023-02-15T13:47:35;9.80;99.90
9998;DHT22;5038;53.064;8.624;2023-02-15T13:50:16;9.90;99.90
9998;DHT22;5038;53.064;8.624;2023-02-15T13:52:51;9.90;99.90
9998;DHT22;5038;53.064;8.624;2023-02-15T13:55:37;10.00;99.90
9998;DHT22;5038;53.064;8.624;2023-02-15T14:01:06;10.00;99.90
9998;DHT22;5038;53.064;8.624;2023-02-15T14:03:46;10.10;99.90
9998;DHT22;5038;53.064;8.624;2023-02-15T14:06:29;10.10;99.90
9998;DHT22;5038;53.064;8.624;2023-02-15T14:09:11;10.20;99.90
9998;DHT22;5038;53.064;8.624;2023-02-15T14:11:54;10.20;99.90
9998;DHT22;5038;53.064;8.624;2023-02-15T14:17:45;10.20;99.90
9998;DHT22;5038;53.064;8.624;2023-02-15T14:20:22;10.30;99.90
9998;DHT22;5038;53.064;8.624;2023-02-15T14:23:00;10.30;99.90
9998;DHT22;5038;53.064;8.624;2023-02-15T14:25:37;10.30;99.90
9998;DHT22;5038;53.064;8.624;2023-02-15T14:28:11;10.30;99.90
9998;DHT22;5038;53.064;8.624;2023-02-15T14:30:44;10.30;99.90
9998;DHT22;5038;53.064;8.624;2023-02-15T14:33:29;10.30;99.90
9998;DHT22;5038;53.064;8.624;2023-02-15T14:36:03;10.30;99.90
9998;DHT22;5038;53.064;8.624;2023-02-15T14:38:44;10.30;99.90
9998;DHT22;5038;53.064;8.624;2023-02-15T14:41:18;10.30;99.90
9998;DHT22;5038;53.064;8.624;2023-02-15T14:43:55;10.30;99.90
9998;DHT22;5038;53.064;8.624;2023-02-15T14:46:30;10.30;99.90
9998;DHT22;5038;53.064;8.624;2023-02-15T14:49:08;10.30;99.90
9998;DHT22;5038;53.064;8.624;2023-02-15T14:51:57;10.30;99.90
9998;DHT22;5038;53.064;8.624;2023-02-15T14:54:57;10.20;99.90
9998;DHT22;5038;53.064;8.624;2023-02-15T14:57:28;10.20;99.90
9998;DHT22;5038;53.064;8.624;2023-02-15T15:00:28;10.20;99.90
9998;DHT22;5038;53.064;8.624;2023-02-15T15:02:58;10.10;99.90
9998;DHT22;5038;53.064;8.624;2023-02-15T15:05:33;10.20;99.90
9998;DHT22;5038;53.064;8.624;2023-02-15T15:08:04;10.10;99.90
9998;DHT22;5038;53.064;8.624;2023-02-15T15:10:41;10.10;99.90
9998;DHT22;5038;53.064;8.624;2023-02-15T15:13:35;10.10;99.90
9998;DHT22;5038;53.064;8.624;2023-02-15T15:16:29;10.10;99.90
9998;DHT22;5038;53.064;8.624;2023-02-15T15:18:58;10.10;99.90
9998;DHT22;5038;53.064;8.624;2023-02-15T15:22:03;10.00;99.90
9998;DHT22;5038;53.064;8.624;2023-02-15T15:24:51;10.00;99.90
9998;DHT22;5038;53.064;8.624;2023-02-15T15:27:52;10.00;99.90
9998;DHT22;5038;53.064;8.624;2023-02-15T15:33:55;9.90;99.90
9998;DHT22;5038;53.064;8.624;2023-02-15T15:36:49;9.90;99.90
9998;DHT22;5038;53.064;8.624;2023-02-15T15:39:49;9.90;99.90
9998;DHT22;5038;53.064;8.624;2023-02-15T15:42:32;9.80;99.90
9998;DHT22;5038;53.064;8.624;2023-02-15T15:48:27;9.80;99.90
9998;DHT22;5038;53.064;8.624;2023-02-15T15:51:04;9.70;99.90
9998;DHT22;5038;53.064;8.624;2023-02-15T15:53:38;9.70;99.90
9998;DHT22;5038;53.064;8.624;2023-02-15T15:56:13;9.70;99.90
9998;DHT22;5038;53.064;8.624;2023-02-15T15:58:45;9.60;99.90
9998;DHT22;5038;53.064;8.624;2023-02-15T16:01:14;9.60;99.90
9998;DHT22;5038;53.064;8.624;2023-02-15T16:03:49;9.60;99.90
9998;DHT22;5038;53.064;8.624;2023-02-15T16:06:33;9.50;99.90
9998;DHT22;5038;53.064;8.624;2023-02-15T16:09:12;9.50;99.90
9998;DHT22;5038;53.064;8.624;2023-02-15T16:11:41;9.50;99.90
9998;DHT22;5038;53.064;8.624;2023-02-15T16:14:15;9.40;99.90
9998;DHT22;5038;53.064;8.624;2023-02-15T16:16:49;9.40;99.90
9998;DHT22;5038;53.064;8.624;2023-02-15T16:19:22;9.30;99.90
9998;DHT22;5038;53.064;8.624;2023-02-15T16:21:54;9.30;99.90
9998;DHT22;5038;53.064;8.624;2023-02-15T16:24:42;9.20;99.90
9998;DHT22;5038;53.064;8.624;2023-02-15T16:27:33;9.20;99.90
9998;DHT22;5038;53.064;8.624;2023-02-15T16:30:20;9.10;99.90
9998;DHT22;5038;53.064;8.624;2023-02-15T16:32:52;9.00;99.90
9998;DHT22;5038;53.064;8.624;2023-02-15T16:35:21;9.00;99.90
9998;DHT22;5038;53.064;8.624;2023-02-15T16:37:51;9.00;99.90
9998;DHT22;5038;53.064;8.624;2023-02-15T16:40:31;9.00;99.90
9998;DHT22;5038;53.064;8.624;2023-02-15T16:43:03;8.90;99.90
9998;DHT22;5038;53.064;8.624;2023-02-15T16:45:34;8.90;99.90
9998;DHT22;5038;53.064;8.624;2023-02-15T16:48:08;8.80;99.90
9998;DHT22;5038;53.064;8.624;2023-02-15T16:50:40;8.70;99.90
9998;DHT22;5038;53.064;8.624;2023-02-15T16:53:18;8.70;99.90
9998;DHT22;5038;53.064;8.624;2023-02-15T16:55:50;8.70;99.90
9998;DHT22;5038;53.064;8.624;2023-02-15T16:58:31;8.60;99.90
9998;DHT22;5038;53.064;8.624;2023-02-15T17:01:01;8.60;99.90
9998;DHT22;5038;53.064;8.624;2023-02-15T17:03:30;8.60;99.90
9998;DHT22;5038;53.064;8.624;2023-02-15T17:06:00;8.50;99.90
9998;DHT22;5038;53.064;8.624;2023-02-15T17:08:32;8.40;99.90
9998;DHT22;5038;53.064;8.624;2023-02-15T17:11:15;8.40;99.90
9998;DHT22;5038;53.064;8.624;2023-02-15T17:14:13;8.40;99.90
9998;DHT22;5038;53.064;8.624;2023-02-15T17:16:43;8.30;99.90
9998;DHT22;5038;53.064;8.624;2023-02-15T17:19:19;8.20;99.90
9998;DHT22;5038;53.064;8.624;2023-02-15T17:21:54;8.20;99.90
9998;DHT22;5038;53.064;8.624;2023-02-15T17:24:33;8.10;99.90
9998;DHT22;5038;53.064;8.624;2023-02-15T17:27:06;8.10;99.90
9998;DHT22;5038;53.064;8.624;2023-02-15T17:29:40;8.00;99.90